sensor_id;sensor_type;location;lat;lon;timestamp;pressure;altitude;pressure_sealevel;temperature;humidity
45255;BME280;30989;52.078;21.014;2022-11-11T00:02:00;165484.91;;;6.61;100.00
45255;BME280;30989;52.078;21.014;2022-11-11T00:04:44;165498.25;;;6.66;100.00
45255;BME280;30989;52.078;21.014;2022-11-11T00:07:27;165499.59;;;6.67;100.00
45255;BME280;30989;52.078;21.014;2022-11-11T00:10:11;165498.25;;;6.66;100.00
45255;BME280;30989;52.078;21.014;2022-11-11T00:12:59;165499.59;;;6.67;100.00
45255;BME280;30989;52.078;21.014;2022-11-11T00:15:44;165482.22;;;6.60;100.00
45255;BME280;30989;52.078;21.014;2022-11-11T00:18:28;165476.88;;;6.58;100.00
45255;BME280;30989;52.078;21.014;2022-11-11T00:21:31;165462.19;;;6.53;100.00
45255;BME280;30989;52.078;21.014;2022-11-11T00:24:27;165467.53;;;6.55;100.00
45255;BME280;30989;52.078;21.014;2022-11-11T00:27:29;165440.81;;;6.44;100.00
45255;BME280;30989;52.078;21.014;2022-11-11T00:30:13;165455.50;;;6.50;100.00
45255;BME280;30989;52.078;21.014;2022-11-11T00:32:57;165443.50;;;6.45;100.00
45255;BME280;30989;52.078;21.014;2022-11-11T00:35:41;165431.47;;;6.41;100.00
45255;BME280;30989;52.078;21.014;2022-11-11T00:38:37;165439.50;;;6.44;100.00
45255;BME280;30989;52.078;21.014;2022-11-11T00:41:28;165440.81;;;6.44;100.00
45255;BME280;30989;52.078;21.014;2022-11-11T00:44:12;165435.47;;;6.42;100.00
45255;BME280;30989;52.078;21.014;2022-11-11T00:46:56;165436.81;;;6.43;100.00
45255;BME280;30989;52.078;21.014;2022-11-11T00:49:59;165424.78;;;6.38;100.00
45255;BME280;30989;52.078;21.014;2022-11-11T00:53:11;165435.47;;;6.42;100.00
45255;BME280;30989;52.078;21.014;2022-11-11T00:55:56;165434.16;;;6.42;100.00
45255;BME280;30989;52.078;21.014;2022-11-11T00:58:40;165444.84;;;6.46;100.00
45255;BME280;30989;52.078;21.014;2022-11-11T01:01:24;165447.50;;;6.47;100.00
45255;BME280;30989;52.078;21.014;2022-11-11T01:04:08;165447.50;;;6.47;100.00
45255;BME280;30989;52.078;21.014;2022-11-11T01:06:52;165444.84;;;6.46;100.00
45255;BME280;30989;52.078;21.014;2022-11-11T01:09:37;165442.16;;;6.45;100.00
45255;BME280;30989;52.078;21.014;2022-11-11T01:12:21;165439.50;;;6.44;100.00
45255;BME280;30989;52.078;21.014;2022-11-11T01:15:05;165443.50;;;6.45;100.00
45255;BME280;30989;52.078;21.014;2022-11-11T01:17:49;165428.81;;;6.40;100.00
45255;BME280;30989;52.078;21.014;2022-11-11T01:20:33;165460.84;;;6.52;100.00
45255;BME280;30989;52.078;21.014;2022-11-11T01:23:18;165471.53;;;6.56;100.00
45255;BME280;30989;52.078;21.014;2022-11-11T01:26:06;165466.19;;;6.54;100.00
45255;BME280;30989;52.078;21.014;2022-11-11T01:28:52;165498.25;;;6.66;100.00
45255;BME280;30989;52.078;21.014;2022-11-11T01:31:36;165502.28;;;6.68;100.00
45255;BME280;30989;52.078;21.014;2022-11-11T01:34:20;165511.63;;;6.71;100.00
45255;BME280;30989;52.078;21.014;2022-11-11T01:37:04;165530.31;;;6.78;100.00
45255;BME280;30989;52.078;21.014;2022-11-11T01:39:48;165541.00;;;6.83;100.00
45255;BME280;30989;52.078;21.014;2022-11-11T01:43:30;165546.34;;;6.85;100.00
45255;BME280;30989;52.078;21.014;2022-11-11T01:46:00;165565.06;;;6.92;100.00
45255;BME280;30989;52.078;21.014;2022-11-11T01:48:49;165575.75;;;6.96;100.00
45255;BME280;30989;52.078;21.014;2022-11-11T01:55:39;165575.75;;;6.96;100.00
45255;BME280;30989;52.078;21.014;2022-11-11T01:58:17;165578.44;;;6.97;100.00
45255;BME280;30989;52.078;21.014;2022-11-11T02:01:02;165585.09;;;6.99;100.00
45255;BME280;30989;52.078;21.014;2022-11-11T02:03:48;165578.44;;;6.97;100.00
45255;BME280;30989;52.078;21.014;2022-11-11T02:06:54;165577.09;;;6.96;100.00
45255;BME280;30989;52.078;21.014;2022-11-11T02:09:42;165586.44;;;7.00;100.00
45255;BME280;30989;52.078;21.014;2022-11-11T02:12:28;165587.78;;;7.00;100.00
45255;BME280;30989;52.078;21.014;2022-11-11T02:15:30;165583.78;;;6.99;100.00
45255;BME280;30989;52.078;21.014;2022-11-11T02:18:14;165586.44;;;7.00;100.00
45255;BME280;30989;52.078;21.014;2022-11-11T02:20:58;165574.41;;;6.95;100.00
45255;BME280;30989;52.078;21.014;2022-11-11T02:24:08;165593.13;;;7.02;100.00
45255;BME280;30989;52.078;21.014;2022-11-11T02:26:58;165586.44;;;7.00;100.00
45255;BME280;30989;52.078;21.014;2022-11-11T02:29:45;165573.09;;;6.95;100.00
45255;BME280;30989;52.078;21.014;2022-11-11T02:32:30;165565.06;;;6.92;100.00
45255;BME280;30989;52.078;21.014;2022-11-11T02:35:17;165554.38;;;6.88;100.00
45255;BME280;30989;52.078;21.014;2022-11-11T02:38:04;165541.00;;;6.83;100.00
45255;BME280;30989;52.078;21.014;2022-11-11T02:40:51;165522.31;;;6.75;100.00
45255;BME280;30989;52.078;21.014;2022-11-11T02:43:54;165506.28;;;6.69;100.00
45255;BME280;30989;52.078;21.014;2022-11-11T02:46:38;165482.22;;;6.60;100.00
45255;BME280;30989;52.078;21.014;2022-11-11T02:49:22;165478.22;;;6.59;100.00
45255;BME280;30989;52.078;21.014;2022-11-11T02:52:06;165468.88;;;6.55;100.00
45255;BME280;30989;52.078;21.014;2022-11-11T02:54:50;165448.84;;;6.47;100.00
45255;BME280;30989;52.078;21.014;2022-11-11T02:57:35;165426.13;;;6.39;100.00
45255;BME280;30989;52.078;21.014;2022-11-11T03:00:20;165406.09;;;6.31;100.00
45255;BME280;30989;52.078;21.014;2022-11-11T03:03:04;165383.41;;;6.23;100.00
45255;BME280;30989;52.078;21.014;2022-11-11T03:05:48;165374.03;;;6.19;100.00
45255;BME280;30989;52.078;21.014;2022-11-11T03:08:32;165355.34;;;6.12;100.00
45255;BME280;30989;52.078;21.014;2022-11-11T03:11:16;165336.66;;;6.05;100.00
45255;BME280;30989;52.078;21.014;2022-11-11T03:14:10;165312.63;;;5.96;100.00
45255;BME280;30989;52.078;21.014;2022-11-11T03:16:54;165312.63;;;5.96;100.00
45255;BME280;30989;52.078;21.014;2022-11-11T03:19:57;165291.19;;;5.88;100.00
45255;BME280;30989;52.078;21.014;2022-11-11T03:23:06;165289.88;;;5.87;100.00
45255;BME280;30989;52.078;21.014;2022-11-11T03:25:50;165268.50;;;5.79;100.00
45255;BME280;30989;52.078;21.014;2022-11-11T03:28:34;165267.16;;;5.78;100.00
45255;BME280;30989;52.078;21.014;2022-11-11T03:31:18;165260.50;;;5.76;100.00
45255;BME280;30989;52.078;21.014;2022-11-11T03:34:02;165251.16;;;5.72;100.00
45255;BME280;30989;52.078;21.014;2022-11-11T03:37:03;165244.47;;;5.70;100.00
45255;BME280;30989;52.078;21.014;2022-11-11T03:40:07;165224.44;;;5.62;100.00
45255;BME280;30989;52.078;21.014;2022-11-11T03:42:51;165225.78;;;5.63;100.00
45255;BME280;30989;52.078;21.014;2022-11-11T03:45:35;165220.44;;;5.61;100.00
45255;BME280;30989;52.078;21.014;2022-11-11T03:48:19;165219.09;;;5.60;100.00
45255;BME280;30989;52.078;21.014;2022-11-11T03:51:04;165215.09;;;5.59;100.00
45255;BME280;30989;52.078;21.014;2022-11-11T03:53:48;165217.78;;;5.60;100.00
45255;BME280;30989;52.078;21.014;2022-11-11T03:56:32;165219.09;;;5.60;100.00
45255;BME280;30989;52.078;21.014;2022-11-11T03:59:16;165219.09;;;5.60;100.00
45255;BME280;30989;52.078;21.014;2022-11-11T04:02:00;165220.44;;;5.61;100.00
45255;BME280;30989;52.078;21.014;2022-11-11T04:05:03;165217.78;;;5.60;100.00
45255;BME280;30989;52.078;21.014;2022-11-11T04:08:15;165209.75;;;5.57;100.00
45255;BME280;30989;52.078;21.014;2022-11-11T04:11:39;165215.09;;;5.59;100.00
45255;BME280;30989;52.078;21.014;2022-11-11T04:14:23;165209.75;;;5.57;100.00
45255;BME280;30989;52.078;21.014;2022-11-11T04:17:46;165215.09;;;5.59;100.00
45255;BME280;30989;52.078;21.014;2022-11-11T04:20:30;165209.75;;;5.57;100.00
45255;BME280;30989;52.078;21.014;2022-11-11T04:23:33;165212.44;;;5.58;100.00
45255;BME280;30989;52.078;21.014;2022-11-11T04:26:17;165217.78;;;5.60;100.00
45255;BME280;30989;52.078;21.014;2022-11-11T04:29:01;165217.78;;;5.60;100.00
45255;BME280;30989;52.078;21.014;2022-11-11T04:32:06;165225.78;;;5.63;100.00
45255;BME280;30989;52.078;21.014;2022-11-11T04:35:10;165227.13;;;5.63;100.00
45255;BME280;30989;52.078;21.014;2022-11-11T04:37:57;165235.13;;;5.66;100.00
45255;BME280;30989;52.078;21.014;2022-11-11T04:41:02;165252.47;;;5.73;100.00
45255;BME280;30989;52.078;21.014;2022-11-11T04:43:45;165247.13;;;5.71;100.00
45255;BME280;30989;52.078;21.014;2022-11-11T04:46:48;165263.16;;;5.77;100.00
45255;BME280;30989;52.078;21.014;2022-11-11T04:49:32;165267.16;;;5.78;100.00
45255;BME280;30989;52.078;21.014;2022-11-11T04:52:16;165288.53;;;5.87;100.00
45255;BME280;30989;52.078;21.014;2022-11-11T04:55:09;165293.88;;;5.89;100.00
45255;BME280;30989;52.078;21.014;2022-11-11T04:58:12;165303.28;;;5.92;100.00
45255;BME280;30989;52.078;21.014;2022-11-11T05:00:58;165295.25;;;5.89;100.00
45255;BME280;30989;52.078;21.014;2022-11-11T05:03:42;165319.28;;;5.98;100.00
45255;BME280;30989;52.078;21.014;2022-11-11T05:06:26;165324.63;;;6.00;100.00
45255;BME280;30989;52.078;21.014;2022-11-11T05:09:29;165339.31;;;6.06;100.00
45255;BME280;30989;52.078;21.014;2022-11-11T05:12:13;165340.66;;;6.06;100.00
45255;BME280;30989;52.078;21.014;2022-11-11T05:14:57;165363.34;;;6.15;100.00
45255;BME280;30989;52.078;21.014;2022-11-11T05:18:00;165370.03;;;6.18;100.00
45255;BME280;30989;52.078;21.014;2022-11-11T05:21:19;165380.72;;;6.22;100.00
45255;BME280;30989;52.078;21.014;2022-11-11T05:24:04;165394.06;;;6.27;100.00
45255;BME280;30989;52.078;21.014;2022-11-11T05:27:07;165404.75;;;6.31;100.00
45255;BME280;30989;52.078;21.014;2022-11-11T05:29:51;165420.78;;;6.37;100.00
45255;BME280;30989;52.078;21.014;2022-11-11T05:32:36;165432.81;;;6.41;100.00
45255;BME280;30989;52.078;21.014;2022-11-11T05:35:23;165431.47;;;6.41;100.00
45255;BME280;30989;52.078;21.014;2022-11-11T05:38:07;165450.16;;;6.48;100.00
45255;BME280;30989;52.078;21.014;2022-11-11T05:41:04;165456.84;;;6.51;100.00
45255;BME280;30989;52.078;21.014;2022-11-11T05:43:48;165466.19;;;6.54;100.00
45255;BME280;30989;52.078;21.014;2022-11-11T05:46:32;165471.53;;;6.56;100.00
45255;BME280;30989;52.078;21.014;2022-11-11T05:49:16;165484.91;;;6.61;100.00
45255;BME280;30989;52.078;21.014;2022-11-11T05:52:00;165495.59;;;6.65;100.00
45255;BME280;30989;52.078;21.014;2022-11-11T05:54:44;165498.25;;;6.66;100.00
45255;BME280;30989;52.078;21.014;2022-11-11T05:57:29;165506.28;;;6.69;100.00
45255;BME280;30989;52.078;21.014;2022-11-11T06:00:13;165519.63;;;6.74;100.00
45255;BME280;30989;52.078;21.014;2022-11-11T06:03:04;165535.66;;;6.81;100.00
45255;BME280;30989;52.078;21.014;2022-11-11T06:05:51;165546.34;;;6.85;100.00
45255;BME280;30989;52.078;21.014;2022-11-11T06:08:35;165554.38;;;6.88;100.00
45255;BME280;30989;52.078;21.014;2022-11-11T06:11:20;165551.69;;;6.87;100.00
45255;BME280;30989;52.078;21.014;2022-11-11T06:14:08;165569.06;;;6.93;100.00
45255;BME280;30989;52.078;21.014;2022-11-11T06:16:52;165583.78;;;6.99;100.00
45255;BME280;30989;52.078;21.014;2022-11-11T06:19:36;165591.78;;;7.02;100.00
45255;BME280;30989;52.078;21.014;2022-11-11T06:22:20;165594.47;;;7.03;100.00
45255;BME280;30989;52.078;21.014;2022-11-11T06:25:26;165607.81;;;7.08;100.00
45255;BME280;30989;52.078;21.014;2022-11-11T06:28:30;165602.47;;;7.06;100.00
45255;BME280;30989;52.078;21.014;2022-11-11T06:31:18;165609.16;;;7.08;100.00
45255;BME280;30989;52.078;21.014;2022-11-11T06:34:02;165626.53;;;7.15;100.00
45255;BME280;30989;52.078;21.014;2022-11-11T06:36:46;165630.53;;;7.17;100.00
45255;BME280;30989;52.078;21.014;2022-11-11T06:39:30;165637.22;;;7.19;100.00
45255;BME280;30989;52.078;21.014;2022-11-11T06:42:14;165641.22;;;7.21;100.00
45255;BME280;30989;52.078;21.014;2022-11-11T06:44:58;165655.94;;;7.26;100.00
45255;BME280;30989;52.078;21.014;2022-11-11T06:47:41;165667.97;;;7.31;100.00
45255;BME280;30989;52.078;21.014;2022-11-11T06:50:29;165677.31;;;7.34;100.00
45255;BME280;30989;52.078;21.014;2022-11-11T06:53:15;165685.34;;;7.37;100.00
45255;BME280;30989;52.078;21.014;2022-11-11T06:56:00;165690.69;;;7.39;100.00
45255;BME280;30989;52.078;21.014;2022-11-11T06:58:44;165698.69;;;7.42;100.00
45255;BME280;30989;52.078;21.014;2022-11-11T07:01:28;165693.34;;;7.40;100.00
45255;BME280;30989;52.078;21.014;2022-11-11T07:04:12;165713.41;;;7.48;100.00
45255;BME280;30989;52.078;21.014;2022-11-11T07:06:56;165721.44;;;7.51;100.00
45255;BME280;30989;52.078;21.014;2022-11-11T07:09:40;165725.44;;;7.53;100.00
45255;BME280;30989;52.078;21.014;2022-11-11T07:12:24;165730.78;;;7.55;100.00
45255;BME280;30989;52.078;21.014;2022-11-11T07:15:09;165734.78;;;7.56;100.00
45255;BME280;30989;52.078;21.014;2022-11-11T07:17:53;165740.13;;;7.58;100.00
45255;BME280;30989;52.078;21.014;2022-11-11T07:20:38;165745.47;;;7.60;100.00
45255;BME280;30989;52.078;21.014;2022-11-11T07:23:22;165746.81;;;7.61;100.00
45255;BME280;30989;52.078;21.014;2022-11-11T07:26:06;165766.88;;;7.68;100.00
45255;BME280;30989;52.078;21.014;2022-11-11T07:28:50;165768.22;;;7.69;100.00
45255;BME280;30989;52.078;21.014;2022-11-11T07:31:34;165770.88;;;7.70;100.00
45255;BME280;30989;52.078;21.014;2022-11-11T07:34:18;165786.94;;;7.76;100.00
45255;BME280;30989;52.078;21.014;2022-11-11T07:37:02;165802.97;;;7.82;100.00
45255;BME280;30989;52.078;21.014;2022-11-11T07:39:46;165808.31;;;7.84;100.00
45255;BME280;30989;52.078;21.014;2022-11-11T07:42:30;165821.69;;;7.89;100.00
45255;BME280;30989;52.078;21.014;2022-11-11T07:45:14;165828.38;;;7.92;100.00
45255;BME280;30989;52.078;21.014;2022-11-11T07:47:58;165833.72;;;7.94;100.00
45255;BME280;30989;52.078;21.014;2022-11-11T07:50:42;165864.47;;;8.05;100.00
45255;BME280;30989;52.078;21.014;2022-11-11T07:53:26;165881.84;;;8.12;100.00
45255;BME280;30989;52.078;21.014;2022-11-11T07:56:11;165900.59;;;8.19;100.00
45255;BME280;30989;52.078;21.014;2022-11-11T07:58:54;165900.59;;;8.19;100.00
45255;BME280;30989;52.078;21.014;2022-11-11T08:01:39;165909.94;;;8.23;100.00
45255;BME280;30989;52.078;21.014;2022-11-11T08:04:23;165948.78;;;8.37;100.00
45255;BME280;30989;52.078;21.014;2022-11-11T08:07:07;165956.81;;;8.40;100.00
45255;BME280;30989;52.078;21.014;2022-11-11T08:09:50;165982.22;;;8.50;100.00
45255;BME280;30989;52.078;21.014;2022-11-11T08:12:34;166000.94;;;8.57;100.00
45255;BME280;30989;52.078;21.014;2022-11-11T08:15:37;166018.31;;;8.64;100.00
45255;BME280;30989;52.078;21.014;2022-11-11T08:18:21;166030.38;;;8.68;100.00
45255;BME280;30989;52.078;21.014;2022-11-11T08:21:06;166027.69;;;8.67;100.00
45255;BME280;30989;52.078;21.014;2022-11-11T08:23:51;166041.06;;;8.72;100.00
45255;BME280;30989;52.078;21.014;2022-11-11T08:26:35;166049.09;;;8.76;100.00
45255;BME280;30989;52.078;21.014;2022-11-11T08:29:19;166061.13;;;8.80;100.00
45255;BME280;30989;52.078;21.014;2022-11-11T08:32:03;166070.50;;;8.84;100.00
45255;BME280;30989;52.078;21.014;2022-11-11T08:34:48;166102.59;;;8.96;100.00
45255;BME280;30989;52.078;21.014;2022-11-11T08:37:32;166132.03;;;9.07;100.00
45255;BME280;30989;52.078;21.014;2022-11-11T08:40:16;166149.44;;;9.14;100.00
45255;BME280;30989;52.078;21.014;2022-11-11T08:43:03;166177.53;;;9.24;100.00
45255;BME280;30989;52.078;21.014;2022-11-11T08:45:53;166198.94;;;9.32;100.00
45255;BME280;30989;52.078;21.014;2022-11-11T08:48:38;166215.00;;;9.38;100.00
45255;BME280;30989;52.078;21.014;2022-11-11T08:51:22;166229.72;;;9.44;100.00
45255;BME280;30989;52.078;21.014;2022-11-11T08:54:05;166239.09;;;9.48;100.00
45255;BME280;30989;52.078;21.014;2022-11-11T08:56:49;166260.50;;;9.56;100.00
45255;BME280;30989;52.078;21.014;2022-11-11T08:59:33;166276.56;;;9.62;100.00
45255;BME280;30989;52.078;21.014;2022-11-11T09:02:17;166298.00;;;9.70;100.00
45255;BME280;30989;52.078;21.014;2022-11-11T09:05:01;166295.31;;;9.69;100.00
45255;BME280;30989;52.078;21.014;2022-11-11T09:07:46;166296.66;;;9.69;100.00
45255;BME280;30989;52.078;21.014;2022-11-11T09:10:30;166299.34;;;9.70;100.00
45255;BME280;30989;52.078;21.014;2022-11-11T09:13:14;166311.38;;;9.75;100.00
45255;BME280;30989;52.078;21.014;2022-11-11T09:15:58;166331.47;;;9.83;100.00
45255;BME280;30989;52.078;21.014;2022-11-11T09:18:42;166346.19;;;9.88;100.00
45255;BME280;30989;52.078;21.014;2022-11-11T09:21:26;166363.59;;;9.95;100.00
45255;BME280;30989;52.078;21.014;2022-11-11T09:24:10;166362.25;;;9.94;100.00
45255;BME280;30989;52.078;21.014;2022-11-11T09:26:54;166372.97;;;9.98;100.00
45255;BME280;30989;52.078;21.014;2022-11-11T09:29:38;166374.31;;;9.99;100.00
45255;BME280;30989;52.078;21.014;2022-11-11T09:32:22;166386.34;;;10.03;100.00
45255;BME280;30989;52.078;21.014;2022-11-11T09:35:06;166391.72;;;10.06;100.00
45255;BME280;30989;52.078;21.014;2022-11-11T09:37:58;166407.78;;;10.12;100.00
45255;BME280;30989;52.078;21.014;2022-11-11T09:43:56;166437.28;;;10.23;100.00
45255;BME280;30989;52.078;21.014;2022-11-11T09:50:07;166473.44;;;10.37;100.00
45255;BME280;30989;52.078;21.014;2022-11-11T09:53:15;166474.78;;;10.37;100.00
45255;BME280;30989;52.078;21.014;2022-11-11T09:56:08;166478.78;;;10.39;100.00
45255;BME280;30989;52.078;21.014;2022-11-11T10:01:49;166469.41;;;10.35;100.00
45255;BME280;30989;52.078;21.014;2022-11-11T10:07:43;166488.22;;;10.42;100.00
45255;BME280;30989;52.078;21.014;2022-11-11T10:13:35;166485.53;;;10.41;100.00
45255;BME280;30989;52.078;21.014;2022-11-11T10:16:52;166489.56;;;10.43;100.00
45255;BME280;30989;52.078;21.014;2022-11-11T10:19:52;166492.25;;;10.44;100.00
45255;BME280;30989;52.078;21.014;2022-11-11T10:22:41;166489.56;;;10.43;100.00
45255;BME280;30989;52.078;21.014;2022-11-11T10:25:26;166485.53;;;10.41;100.00
45255;BME280;30989;52.078;21.014;2022-11-11T10:28:16;166474.78;;;10.37;100.00
45255;BME280;30989;52.078;21.014;2022-11-11T10:31:04;166473.44;;;10.37;100.00
45255;BME280;30989;52.078;21.014;2022-11-11T10:33:54;166469.41;;;10.35;100.00
45255;BME280;30989;52.078;21.014;2022-11-11T10:36:44;166474.78;;;10.37;100.00
45255;BME280;30989;52.078;21.014;2022-11-11T10:42:31;166454.69;;;10.29;100.00
45255;BME280;30989;52.078;21.014;2022-11-11T10:45:40;166472.09;;;10.36;100.00
45255;BME280;30989;52.078;21.014;2022-11-11T10:49:08;166485.53;;;10.41;100.00
45255;BME280;30989;52.078;21.014;2022-11-11T10:52:15;166488.22;;;10.42;100.00
45255;BME280;30989;52.078;21.014;2022-11-11T10:55:17;166519.03;;;10.54;100.00
45255;BME280;30989;52.078;21.014;2022-11-11T10:58:21;166529.75;;;10.58;100.00
45255;BME280;30989;52.078;21.014;2022-11-11T11:01:09;166536.44;;;10.60;100.00
45255;BME280;30989;52.078;21.014;2022-11-11T11:03:59;166539.13;;;10.61;100.00
45255;BME280;30989;52.078;21.014;2022-11-11T11:06:47;166549.81;;;10.65;100.00
45255;BME280;30989;52.078;21.014;2022-11-11T11:09:40;166576.63;;;10.76;100.00
45255;BME280;30989;52.078;21.014;2022-11-11T11:15:22;166595.38;;;10.83;100.00
45255;BME280;30989;52.078;21.014;2022-11-11T11:18:12;166614.13;;;10.90;100.00
45255;BME280;30989;52.078;21.014;2022-11-11T11:21:07;166632.88;;;10.97;100.00
45255;BME280;30989;52.078;21.014;2022-11-11T11:23:52;166634.22;;;10.97;100.00
45255;BME280;30989;52.078;21.014;2022-11-11T11:26:44;166638.25;;;10.99;100.00
45255;BME280;30989;52.078;21.014;2022-11-11T11:29:43;166628.88;;;10.95;100.00
45255;BME280;30989;52.078;21.014;2022-11-11T11:32:29;166632.88;;;10.97;100.00
45255;BME280;30989;52.078;21.014;2022-11-11T11:35:42;166620.81;;;10.92;100.00
45255;BME280;30989;52.078;21.014;2022-11-11T11:38:44;166606.09;;;10.87;100.00
45255;BME280;30989;52.078;21.014;2022-11-11T11:41:38;166603.41;;;10.86;100.00
45255;BME280;30989;52.078;21.014;2022-11-11T11:47:17;166611.44;;;10.89;100.00
45255;BME280;30989;52.078;21.014;2022-11-11T11:50:07;166608.75;;;10.88;100.00
45255;BME280;30989;52.078;21.014;2022-11-11T11:53:19;166603.41;;;10.86;100.00
45255;BME280;30989;52.078;21.014;2022-11-11T11:56:14;166604.75;;;10.86;100.00
45255;BME280;30989;52.078;21.014;2022-11-11T11:59:08;166608.75;;;10.88;100.00
45255;BME280;30989;52.078;21.014;2022-11-11T12:05:25;166608.75;;;10.88;100.00
45255;BME280;30989;52.078;21.014;2022-11-11T12:11:23;166611.44;;;10.89;100.00
45255;BME280;30989;52.078;21.014;2022-11-11T12:20:45;166646.28;;;11.02;100.00
45255;BME280;30989;52.078;21.014;2022-11-11T12:23:48;166651.63;;;11.04;100.00
45255;BME280;30989;52.078;21.014;2022-11-11T12:29:42;166646.28;;;11.02;100.00
45255;BME280;30989;52.078;21.014;2022-11-11T12:36:21;166636.91;;;10.98;100.00
45255;BME280;30989;52.078;21.014;2022-11-11T12:39:56;166620.81;;;10.92;100.00
45255;BME280;30989;52.078;21.014;2022-11-11T12:43:14;166632.88;;;10.97;100.00
45255;BME280;30989;52.078;21.014;2022-11-11T12:51:59;166642.25;;;11.01;100.00
45255;BME280;30989;52.078;21.014;2022-11-11T13:04:24;166583.31;;;10.78;100.00
45255;BME280;30989;52.078;21.014;2022-11-11T13:07:38;166571.25;;;10.74;100.00
45255;BME280;30989;52.078;21.014;2022-11-11T13:10:36;166557.88;;;10.69;100.00
45255;BME280;30989;52.078;21.014;2022-11-11T13:16:22;166531.06;;;10.58;100.00
45255;BME280;30989;52.078;21.014;2022-11-11T13:19:27;166517.69;;;10.53;100.00
45255;BME280;30989;52.078;21.014;2022-11-11T13:22:25;166512.31;;;10.51;100.00
45255;BME280;30989;52.078;21.014;2022-11-11T13:25:17;166501.59;;;10.47;100.00
45255;BME280;30989;52.078;21.014;2022-11-11T13:28:16;166489.56;;;10.43;100.00
45255;BME280;30989;52.078;21.014;2022-11-11T13:34:13;166500.28;;;10.47;100.00
45255;BME280;30989;52.078;21.014;2022-11-11T13:36:58;166501.59;;;10.47;100.00
45255;BME280;30989;52.078;21.014;2022-11-11T13:39:46;166498.94;;;10.46;100.00
45255;BME280;30989;52.078;21.014;2022-11-11T13:42:38;166501.59;;;10.47;100.00
45255;BME280;30989;52.078;21.014;2022-11-11T13:45:35;166501.59;;;10.47;100.00
45255;BME280;30989;52.078;21.014;2022-11-11T13:48:36;166489.56;;;10.43;100.00
45255;BME280;30989;52.078;21.014;2022-11-11T13:51:25;166485.53;;;10.41;100.00
45255;BME280;30989;52.078;21.014;2022-11-11T13:54:49;166480.13;;;10.39;100.00
45255;BME280;30989;52.078;21.014;2022-11-11T13:57:47;166476.13;;;10.38;100.00
45255;BME280;30989;52.078;21.014;2022-11-11T14:00:37;166469.41;;;10.35;100.00
45255;BME280;30989;52.078;21.014;2022-11-11T14:08:59;166443.97;;;10.25;100.00
45255;BME280;30989;52.078;21.014;2022-11-11T14:11:44;166443.97;;;10.25;100.00
45255;BME280;30989;52.078;21.014;2022-11-11T14:17:16;166438.63;;;10.23;100.00
45255;BME280;30989;52.078;21.014;2022-11-11T14:28:55;166430.59;;;10.20;100.00
45255;BME280;30989;52.078;21.014;2022-11-11T14:31:48;166423.84;;;10.18;100.00
45255;BME280;30989;52.078;21.014;2022-11-11T14:34:53;166421.16;;;10.17;100.00
45255;BME280;30989;52.078;21.014;2022-11-11T14:37:57;166413.13;;;10.14;100.00
45255;BME280;30989;52.078;21.014;2022-11-11T14:40:43;166410.44;;;10.13;100.00
45255;BME280;30989;52.078;21.014;2022-11-11T14:43:35;166419.81;;;10.16;100.00
45255;BME280;30989;52.078;21.014;2022-11-11T14:46:19;166409.09;;;10.12;100.00
45255;BME280;30989;52.078;21.014;2022-11-11T14:49:03;166423.84;;;10.18;100.00
45255;BME280;30989;52.078;21.014;2022-11-11T14:51:50;166413.13;;;10.14;100.00
45255;BME280;30989;52.078;21.014;2022-11-11T14:54:58;166425.19;;;10.18;100.00
45255;BME280;30989;52.078;21.014;2022-11-11T15:00:51;166413.13;;;10.14;100.00
45255;BME280;30989;52.078;21.014;2022-11-11T15:04:09;166415.81;;;10.15;100.00
45255;BME280;30989;52.078;21.014;2022-11-11T15:06:57;166413.13;;;10.14;100.00
45255;BME280;30989;52.078;21.014;2022-11-11T15:27:59;166362.25;;;9.94;100.00
45255;BME280;30989;52.078;21.014;2022-11-11T15:31:01;166352.88;;;9.91;100.00
45255;BME280;30989;52.078;21.014;2022-11-11T15:36:54;166338.16;;;9.85;100.00
45255;BME280;30989;52.078;21.014;2022-11-11T15:39:44;166335.47;;;9.84;100.00
45255;BME280;30989;52.078;21.014;2022-11-11T15:42:39;166323.44;;;9.80;100.00
45255;BME280;30989;52.078;21.014;2022-11-11T15:45:32;166314.06;;;9.76;100.00
45255;BME280;30989;52.078;21.014;2022-11-11T15:48:23;166308.69;;;9.74;100.00
45255;BME280;30989;52.078;21.014;2022-11-11T15:54:25;166283.28;;;9.64;100.00
45255;BME280;30989;52.078;21.014;2022-11-11T15:57:29;166276.56;;;9.62;100.00
45255;BME280;30989;52.078;21.014;2022-11-11T16:03:13;166271.22;;;9.60;100.00
45255;BME280;30989;52.078;21.014;2022-11-11T16:05:59;166259.19;;;9.55;100.00
45255;BME280;30989;52.078;21.014;2022-11-11T16:08:51;166273.91;;;9.61;100.00
45255;BME280;30989;52.078;21.014;2022-11-11T16:11:38;166277.91;;;9.62;100.00
45255;BME280;30989;52.078;21.014;2022-11-11T16:14:30;166285.94;;;9.65;100.00
45255;BME280;30989;52.078;21.014;2022-11-11T16:17:15;166284.59;;;9.65;100.00
45255;BME280;30989;52.078;21.014;2022-11-11T16:20:01;166292.63;;;9.68;100.00
45255;BME280;30989;52.078;21.014;2022-11-11T16:22:47;166279.25;;;9.63;100.00
45255;BME280;30989;52.078;21.014;2022-11-11T16:25:33;166285.94;;;9.65;100.00
45255;BME280;30989;52.078;21.014;2022-11-11T16:28:18;166298.00;;;9.70;100.00
45255;BME280;30989;52.078;21.014;2022-11-11T16:31:21;166302.00;;;9.72;100.00
45255;BME280;30989;52.078;21.014;2022-11-11T16:34:44;166292.63;;;9.68;100.00